Decoded Metar for KY51 (VIROQUA MUNI AIRPORT in WI, USA) (IATA:N/A) | Meteo·Mobile Aviation Weather
aviador You're here:

KY51 Decoded Metar

VIROQUA MUNI AIRPORT in WI, USA
Report Time2019-02-16 18:15:00
UTC Time2019-02-16 18:18:40
Flight Rules vfr VFR
Wind100° at 04 kt
W.Rank100° ranks 23
Current wind is below 100° avg. (7.3)
Visibility9999 m
Phenomena:N/A
Clouds:N/A
Expected CloudBase > 2,400 ft AGL from Temp-Dew spread
CeilingNone
Temp-6°C (ISA -18)
Dew Point-12°C (63% RH)
AAT-10.6°C
QNH1019 hPa
Density Alt-1,152 ft
Elevation1,292 ft
Report Wrong Elevation
Raw Report
KY51 161815Z AUTO 10004KT 10SM CLR M06/M12 A3008 RMK AO1
T10621116=

Extra information for KY51:More info

Metar Taf Metar & Taf Last 4 Metars F.Rules Stats Wind Profile Meteogram Temp Stats Airport Information Weather charts Add Link Nearby VenuesMetar ALERT Operation Metar Decoded Social comments

AIRNAV info for KY51